createdAt,value
2019-03-17T00:00:10.359Z,99260.73
2019-03-17T00:02:39.100Z,99258.19
2019-03-17T00:05:07.854Z,99259.03
2019-03-17T00:07:36.352Z,99253.45
2019-03-17T00:10:06.596Z,99250.76
2019-03-17T00:12:35.078Z,99244.84
2019-03-17T00:15:07.419Z,99243.00
2019-03-17T00:17:36.038Z,99235.72
2019-03-17T00:20:06.025Z,99221.38
2019-03-17T00:22:34.541Z,99225.59
2019-03-17T00:25:09.075Z,99225.26
2019-03-17T00:27:33.409Z,99229.16
2019-03-17T00:30:01.920Z,99224.91
2019-03-17T00:32:32.645Z,99221.72
2019-03-17T00:35:01.149Z,99223.56
2019-03-17T00:37:29.594Z,99228.12
2019-03-17T00:39:58.089Z,99219.34
2019-03-17T00:42:26.572Z,99209.54
2019-03-17T00:44:55.106Z,99207.52
2019-03-17T00:47:26.383Z,99201.28
2019-03-17T00:49:56.377Z,99203.28
2019-03-17T00:52:24.855Z,99201.45
2019-03-17T00:54:53.315Z,99188.92
2019-03-17T00:57:21.785Z,99187.92
2019-03-17T00:59:50.271Z,99190.10
2019-03-17T01:02:18.741Z,99180.83
2019-03-17T01:04:55.822Z,99181.83
2019-03-17T01:07:17.413Z,99180.98
2019-03-17T01:09:46.415Z,99183.01
2019-03-17T01:12:16.551Z,99191.11
2019-03-17T01:14:45.011Z,99174.23
2019-03-17T01:17:13.465Z,99165.77
2019-03-17T01:19:42.065Z,99170.69
2019-03-17T01:22:10.611Z,99175.09
2019-03-17T01:24:39.243Z,99173.23
2019-03-17T01:27:09.379Z,99158.84
2019-03-17T01:29:38.202Z,99140.77
2019-03-17T01:32:06.647Z,99138.22
2019-03-17T01:34:37.535Z,99134.36
2019-03-17T01:37:06.005Z,99128.78
2019-03-17T01:39:34.623Z,99131.33
2019-03-17T01:42:04.435Z,99118.16
2019-03-17T01:44:32.942Z,99120.30
2019-03-17T01:47:01.424Z,99116.97
2019-03-17T01:49:29.892Z,99116.78
2019-03-17T01:51:59.965Z,99116.30
2019-03-17T01:54:28.535Z,99121.02
2019-03-17T01:56:56.999Z,99112.24
2019-03-17T01:59:25.554Z,99105.97
2019-03-17T02:01:54.279Z,99096.67
2019-03-17T02:04:22.781Z,99102.94
2019-03-17T02:06:51.316Z,99098.72
2019-03-17T02:09:19.793Z,99093.78
2019-03-17T02:11:48.430Z,99084.00
2019-03-17T02:14:17.922Z,99083.00
2019-03-17T02:16:54.227Z,99079.79
2019-03-17T02:19:22.784Z,99078.09
2019-03-17T02:21:51.265Z,99077.92
2019-03-17T02:24:19.724Z,99072.31
2019-03-17T02:26:48.228Z,99072.69
2019-03-17T02:29:16.688Z,99060.95
2019-03-17T02:31:45.242Z,99060.83
2019-03-17T02:34:13.818Z,99056.42
2019-03-17T02:36:42.365Z,99054.91
2019-03-17T02:39:10.830Z,99051.89
2019-03-17T02:41:39.377Z,99051.20
2019-03-17T02:44:08.307Z,99049.17
2019-03-17T02:46:36.799Z,99038.72
2019-03-17T02:49:05.465Z,99044.28
2019-03-17T02:51:33.974Z,99036.66
2019-03-17T02:54:02.491Z,99043.44
2019-03-17T02:56:31.001Z,99038.52
2019-03-17T02:59:02.247Z,99037.16
2019-03-17T03:01:32.436Z,99036.16
2019-03-17T03:04:03.732Z,99024.78
2019-03-17T03:06:32.256Z,99021.05
2019-03-17T03:09:00.720Z,99013.67
2019-03-17T03:11:29.557Z,99007.33
2019-03-17T03:13:58.041Z,98996.66
2019-03-17T03:16:26.542Z,98996.68
2019-03-17T03:18:55.200Z,98994.05
2019-03-17T03:21:23.685Z,98989.84
2019-03-17T03:23:52.171Z,98990.48
2019-03-17T03:26:22.612Z,98994.69
2019-03-17T03:28:50.986Z,98984.74
2019-03-17T03:31:19.456Z,98977.92
2019-03-17T03:33:48.190Z,98983.50
2019-03-17T03:36:20.748Z,98966.63
2019-03-17T03:38:49.254Z,98963.22
2019-03-17T03:41:17.719Z,98966.92
2019-03-17T03:43:46.265Z,98957.63
2019-03-17T03:46:15.170Z,98961.03
2019-03-17T03:48:43.781Z,98960.52
2019-03-17T03:51:12.340Z,98947.30
2019-03-17T03:53:40.798Z,98955.39
2019-03-17T03:56:09.282Z,98954.77
2019-03-17T03:58:37.759Z,98953.34
2019-03-17T04:01:06.241Z,98945.61
2019-03-17T04:03:37.667Z,98945.72
2019-03-17T04:06:06.181Z,98934.75
2019-03-17T04:08:34.756Z,98946.41
2019-03-17T04:11:03.192Z,98950.44
2019-03-17T04:13:31.684Z,98938.05
2019-03-17T04:16:01.735Z,98937.08
2019-03-17T04:18:30.213Z,98952.80
2019-03-17T04:20:58.800Z,98939.64
2019-03-17T04:23:27.327Z,98928.69
2019-03-17T04:25:55.832Z,98935.58
2019-03-17T04:28:24.361Z,98937.22
2019-03-17T04:30:52.828Z,98918.48
2019-03-17T04:33:21.354Z,98926.33
2019-03-17T04:35:50.156Z,98915.12
2019-03-17T04:38:18.704Z,98925.28
2019-03-17T04:40:47.155Z,98924.45
2019-03-17T04:43:15.634Z,98925.91
2019-03-17T04:45:44.562Z,98927.92
2019-03-17T04:48:13.039Z,98921.36
2019-03-17T04:50:43.034Z,98918.69
2019-03-17T04:53:11.516Z,98911.23
2019-03-17T04:55:42.657Z,98915.30
2019-03-17T04:58:15.797Z,98914.77
2019-03-17T05:00:44.273Z,98912.06
2019-03-17T05:03:12.731Z,98912.63
2019-03-17T05:05:41.201Z,98908.50
2019-03-17T05:08:09.689Z,98911.62
2019-03-17T05:10:38.157Z,98914.05
2019-03-17T05:13:12.252Z,98923.90
2019-03-17T05:15:41.257Z,98901.42
2019-03-17T05:18:09.749Z,98903.46
2019-03-17T05:20:41.103Z,98915.58
2019-03-17T05:23:09.577Z,98899.92
2019-03-17T05:25:40.781Z,98894.38
2019-03-17T05:28:09.295Z,98882.20
2019-03-17T05:30:37.765Z,98891.05
2019-03-17T05:33:06.251Z,98893.33
2019-03-17T05:35:34.717Z,98896.64
2019-03-17T05:38:03.202Z,98898.65
2019-03-17T05:40:31.829Z,98894.11
2019-03-17T05:43:02.149Z,98899.23
2019-03-17T05:45:30.577Z,98895.17
2019-03-17T05:47:59.102Z,98909.09
2019-03-17T05:50:27.579Z,98918.34
2019-03-17T05:52:56.148Z,98919.28
2019-03-17T05:55:24.679Z,98917.95
2019-03-17T05:57:55.936Z,98919.88
2019-03-17T06:00:24.453Z,98926.98
2019-03-17T06:02:52.949Z,98939.17
2019-03-17T06:05:21.601Z,98934.84
2019-03-17T06:07:50.068Z,98936.21
2019-03-17T06:10:18.640Z,98932.75
2019-03-17T06:12:47.121Z,98931.66
2019-03-17T06:15:15.830Z,98933.20
2019-03-17T06:17:44.382Z,98928.15
2019-03-17T06:20:13.315Z,98936.78
2019-03-17T06:22:41.796Z,98928.70
2019-03-17T06:25:11.140Z,98929.53
2019-03-17T06:27:39.628Z,98926.97
2019-03-17T06:30:13.053Z,98932.58
2019-03-17T06:32:41.523Z,98928.68
2019-03-17T06:35:10.206Z,98930.39
2019-03-17T06:37:38.680Z,98928.03
2019-03-17T06:40:14.117Z,98916.00
2019-03-17T06:42:42.762Z,98923.95
2019-03-17T06:45:11.695Z,98919.91
2019-03-17T06:47:40.178Z,98928.84
2019-03-17T06:50:18.090Z,98933.66
2019-03-17T06:52:46.574Z,98922.77
2019-03-17T06:55:16.769Z,98924.99
2019-03-17T06:57:45.727Z,98929.67
2019-03-17T07:00:14.686Z,98944.56
2019-03-17T07:02:43.270Z,98927.34
2019-03-17T07:05:12.174Z,98924.15
2019-03-17T07:07:44.273Z,98941.72
2019-03-17T07:10:11.814Z,98934.98
2019-03-17T07:12:40.280Z,98933.64
2019-03-17T07:15:12.457Z,98934.47
2019-03-17T07:17:41.016Z,98927.20
2019-03-17T07:20:11.841Z,98943.35
2019-03-17T07:22:40.390Z,98995.25
2019-03-17T07:25:09.673Z,99010.15
2019-03-17T07:27:39.660Z,99011.35
2019-03-17T07:30:12.065Z,99008.97
2019-03-17T07:32:40.501Z,99016.91
2019-03-17T07:35:09.164Z,99037.14
2019-03-17T07:37:37.681Z,99048.42
2019-03-17T07:40:14.780Z,99035.95
2019-03-17T07:42:43.229Z,99035.75
2019-03-17T07:45:12.558Z,99042.80
2019-03-17T07:47:41.014Z,99050.73
2019-03-17T07:50:11.677Z,99070.27
2019-03-17T07:52:40.202Z,99078.17
2019-03-17T07:55:09.818Z,99093.50
2019-03-17T07:57:38.296Z,99087.95
2019-03-17T08:00:10.695Z,99094.63
2019-03-17T08:02:39.249Z,99096.33
2019-03-17T08:05:12.431Z,99099.02
2019-03-17T08:07:40.911Z,99100.83
2019-03-17T08:10:14.320Z,99098.48
2019-03-17T08:12:44.565Z,99106.88
2019-03-17T08:15:14.865Z,99118.02
2019-03-17T08:17:43.690Z,99121.41
2019-03-17T08:20:12.785Z,99124.73
2019-03-17T08:22:42.902Z,99123.28
2019-03-17T08:25:12.997Z,99132.02
2019-03-17T08:27:41.557Z,99135.72
2019-03-17T08:30:16.324Z,99154.95
2019-03-17T08:32:44.975Z,99151.52
2019-03-17T08:35:13.701Z,99150.22
2019-03-17T08:37:42.175Z,99161.04
2019-03-17T08:40:17.296Z,99167.75
2019-03-17T08:42:46.047Z,99167.92
2019-03-17T08:45:15.393Z,99171.45
2019-03-17T08:47:56.656Z,99171.83
2019-03-17T08:50:17.279Z,99166.70
2019-03-17T08:52:45.829Z,99173.16
2019-03-17T08:55:14.480Z,99162.55
2019-03-17T08:57:42.979Z,99164.25
2019-03-17T09:00:16.818Z,99187.88
2019-03-17T09:02:45.505Z,99210.44
2019-03-17T09:05:14.078Z,99210.44
2019-03-17T09:07:42.676Z,99215.19
2019-03-17T09:10:12.926Z,99216.37
2019-03-17T09:12:41.478Z,99220.09
2019-03-17T09:15:10.430Z,99217.06
2019-03-17T09:17:38.907Z,99216.45
2019-03-17T09:20:12.387Z,99215.64
2019-03-17T09:22:40.875Z,99206.38
2019-03-17T09:25:11.109Z,99210.87
2019-03-17T09:27:39.787Z,99217.45
2019-03-17T09:30:11.358Z,99230.77
2019-03-17T09:32:40.188Z,99225.22
2019-03-17T09:35:10.046Z,99224.58
2019-03-17T09:37:38.573Z,99220.19
2019-03-17T09:40:13.081Z,99227.98
2019-03-17T09:42:41.617Z,99223.39
2019-03-17T09:45:15.226Z,99232.67
2019-03-17T09:47:43.819Z,99238.59
2019-03-17T09:50:22.511Z,99261.52
2019-03-17T09:52:51.118Z,99270.97
2019-03-17T09:55:19.803Z,99259.72
2019-03-17T09:57:48.244Z,99257.02
2019-03-17T10:00:17.990Z,99248.92
2019-03-17T10:02:46.915Z,99254.93
2019-03-17T10:05:15.623Z,99252.42
2019-03-17T10:07:44.090Z,99255.05
2019-03-17T10:10:18.475Z,99264.13
2019-03-17T10:12:52.996Z,99262.60
2019-03-17T10:15:21.764Z,99269.00
2019-03-17T10:17:50.476Z,99266.84
2019-03-17T10:20:19.856Z,99267.01
2019-03-17T10:22:48.322Z,99276.16
2019-03-17T10:25:17.048Z,99278.03
2019-03-17T10:27:49.103Z,99270.63
2019-03-17T10:30:22.000Z,99272.61
2019-03-17T10:32:50.469Z,99273.75
2019-03-17T10:35:19.128Z,99269.83
2019-03-17T10:37:56.576Z,99269.37
2019-03-17T10:40:26.624Z,99282.86
2019-03-17T10:42:55.249Z,99286.23
2019-03-17T10:45:23.935Z,99282.04
2019-03-17T10:47:54.528Z,99286.30
2019-03-17T10:50:24.777Z,99305.60
2019-03-17T10:52:53.352Z,99300.73
2019-03-17T10:55:21.908Z,99305.52
2019-03-17T10:57:50.371Z,99300.61
2019-03-17T11:00:24.933Z,99311.11
2019-03-17T11:02:53.396Z,99321.46
2019-03-17T11:05:22.072Z,99328.89
2019-03-17T11:07:52.931Z,99331.44
2019-03-17T11:10:21.804Z,99335.55
2019-03-17T11:12:50.299Z,99348.39
2019-03-17T11:15:22.441Z,99345.71
2019-03-17T11:17:51.051Z,99348.94
2019-03-17T11:20:19.885Z,99354.02
2019-03-17T11:22:48.409Z,99345.77
2019-03-17T11:25:18.050Z,99335.36
2019-03-17T11:27:46.607Z,99343.16
2019-03-17T11:30:19.796Z,99345.52
2019-03-17T11:32:52.227Z,99354.19
2019-03-17T11:35:22.396Z,99350.53
2019-03-17T11:37:50.873Z,99355.09
2019-03-17T11:40:21.290Z,99359.86
2019-03-17T11:42:50.432Z,99358.16
2019-03-17T11:45:19.461Z,99376.58
2019-03-17T11:47:48.098Z,99367.27
2019-03-17T11:50:18.834Z,99371.49
2019-03-17T11:52:47.424Z,99373.33
2019-03-17T11:55:16.205Z,99373.48
2019-03-17T11:57:44.916Z,99371.41
2019-03-17T12:00:21.117Z,99367.19
2019-03-17T12:02:57.034Z,99361.34
2019-03-17T12:05:30.156Z,99369.69
2019-03-17T12:08:00.442Z,99367.04
2019-03-17T12:10:31.562Z,99355.23
2019-03-17T12:13:00.054Z,99351.05
2019-03-17T12:15:33.110Z,99346.47
2019-03-17T12:18:01.676Z,99359.80
2019-03-17T12:20:30.272Z,99376.66
2019-03-17T12:22:58.895Z,99401.30
2019-03-17T12:25:27.372Z,99416.74
2019-03-17T12:27:55.927Z,99407.08
2019-03-17T12:30:27.709Z,99414.92
2019-03-17T12:32:56.357Z,99407.41
2019-03-17T12:35:24.934Z,99412.98
2019-03-17T12:37:53.561Z,99403.82
2019-03-17T12:40:22.302Z,99402.14
2019-03-17T12:42:50.856Z,99404.26
2019-03-17T12:45:19.523Z,99397.20
2019-03-17T12:47:48.072Z,99409.99
2019-03-17T12:50:18.338Z,99432.25
2019-03-17T12:52:46.936Z,99435.80
2019-03-17T12:55:16.869Z,99439.25
2019-03-17T12:57:45.438Z,99429.09
2019-03-17T13:00:19.710Z,99424.49
2019-03-17T13:02:48.242Z,99427.66
2019-03-17T13:05:16.924Z,99423.98
2019-03-17T13:07:45.380Z,99414.98
2019-03-17T13:10:18.876Z,99418.41
2019-03-17T13:12:47.400Z,99421.36
2019-03-17T13:15:16.126Z,99420.38
2019-03-17T13:17:44.922Z,99419.55
2019-03-17T13:20:15.225Z,99418.83
2019-03-17T13:22:43.734Z,99426.59
2019-03-17T13:25:30.524Z,99426.97
2019-03-17T13:27:58.988Z,99430.20
2019-03-17T13:30:29.106Z,99430.72
2019-03-17T13:32:57.592Z,99424.56
2019-03-17T13:35:32.939Z,99435.78
2019-03-17T13:38:01.176Z,99434.84
2019-03-17T13:40:30.272Z,99444.01
2019-03-17T13:42:58.842Z,99446.63
2019-03-17T13:45:28.199Z,99442.91
2019-03-17T13:47:57.023Z,99436.29
2019-03-17T13:50:25.568Z,99431.53
2019-03-17T13:52:54.034Z,99436.28
2019-03-17T13:55:24.084Z,99446.77
2019-03-17T13:58:06.629Z,99445.09
2019-03-17T14:00:35.475Z,99450.50
2019-03-17T14:03:04.067Z,99455.93
2019-03-17T14:05:35.148Z,99462.88
2019-03-17T14:08:03.803Z,99465.69
2019-03-17T14:10:41.115Z,99463.81
2019-03-17T14:13:02.612Z,99462.62
2019-03-17T14:15:31.150Z,99474.42
2019-03-17T14:18:02.569Z,99475.30
2019-03-17T14:20:33.783Z,99473.70
2019-03-17T14:23:02.275Z,99478.43
2019-03-17T14:25:38.173Z,99481.06
2019-03-17T14:28:08.341Z,99494.62
2019-03-17T14:30:36.793Z,99492.02
2019-03-17T14:33:06.845Z,99491.98
2019-03-17T14:35:35.303Z,99502.35
2019-03-17T14:38:03.831Z,99506.94
2019-03-17T14:40:33.933Z,99511.34
2019-03-17T14:43:02.394Z,99514.83
2019-03-17T14:45:30.867Z,99522.54
2019-03-17T14:48:00.877Z,99522.00
2019-03-17T14:50:29.398Z,99521.15
2019-03-17T14:53:00.592Z,99524.84
2019-03-17T14:55:28.105Z,99527.14
2019-03-17T14:57:56.593Z,99536.39
2019-03-17T15:00:25.381Z,99543.87
2019-03-17T15:02:53.929Z,99559.20
2019-03-17T15:05:25.157Z,99559.61
2019-03-17T15:07:52.771Z,99565.55
2019-03-17T15:10:23.580Z,99569.11
2019-03-17T15:12:54.954Z,99567.20
2019-03-17T15:15:26.501Z,99577.31
2019-03-17T15:17:54.983Z,99573.11
2019-03-17T15:20:27.315Z,99574.82
2019-03-17T15:22:55.844Z,99578.99
2019-03-17T15:25:24.407Z,99587.61
2019-03-17T15:27:53.183Z,99582.72
2019-03-17T15:30:29.595Z,99591.87
2019-03-17T15:32:58.368Z,99585.38
2019-03-17T15:35:27.275Z,99592.52
2019-03-17T15:37:58.552Z,99601.91
2019-03-17T15:40:27.023Z,99593.45
2019-03-17T15:42:55.574Z,99599.53
2019-03-17T15:45:24.593Z,99605.42
2019-03-17T15:47:53.063Z,99605.45
2019-03-17T15:50:26.633Z,99614.00
2019-03-17T15:52:55.318Z,99624.58
2019-03-17T15:55:25.404Z,99627.13
2019-03-17T15:57:53.946Z,99635.27
2019-03-17T16:00:26.346Z,99639.52
2019-03-17T16:02:54.923Z,99638.50
2019-03-17T16:05:23.802Z,99642.40
2019-03-17T16:07:52.367Z,99643.09
2019-03-17T16:10:22.030Z,99647.83
2019-03-17T16:12:50.663Z,99649.52
2019-03-17T16:15:19.332Z,99655.49
2019-03-17T16:17:48.018Z,99662.51
2019-03-17T16:20:23.244Z,99659.23
2019-03-17T16:22:51.700Z,99664.47
2019-03-17T16:25:31.884Z,99669.23
2019-03-17T16:28:00.440Z,99679.10
2019-03-17T16:30:31.013Z,99689.89
2019-03-17T16:32:59.683Z,99678.36
2019-03-17T16:35:30.981Z,99685.29
2019-03-17T16:37:59.534Z,99685.58
2019-03-17T16:40:29.686Z,99688.55
2019-03-17T16:42:58.272Z,99691.94
2019-03-17T16:45:27.217Z,99692.84
2019-03-17T16:47:58.995Z,99702.52
2019-03-17T16:50:27.633Z,99696.61
2019-03-17T16:52:56.063Z,99697.40
2019-03-17T16:55:26.538Z,99693.30
2019-03-17T16:57:54.844Z,99707.23
2019-03-17T17:00:25.228Z,99700.77
2019-03-17T17:02:53.849Z,99707.00
2019-03-17T17:05:23.259Z,99706.80
2019-03-17T17:07:52.091Z,99703.34
2019-03-17T17:10:30.532Z,99702.64
2019-03-17T17:12:59.311Z,99705.92
2019-03-17T17:15:34.503Z,99710.44
2019-03-17T17:18:04.516Z,99708.83
2019-03-17T17:20:34.119Z,99717.05
2019-03-17T17:23:02.648Z,99719.67
2019-03-17T17:25:33.702Z,99716.84
2019-03-17T17:28:02.259Z,99720.83
2019-03-17T17:30:30.828Z,99729.62
2019-03-17T17:32:59.506Z,99736.66
2019-03-17T17:35:28.132Z,99738.92
2019-03-17T17:37:56.660Z,99740.56
2019-03-17T17:40:25.967Z,99742.69
2019-03-17T17:42:54.493Z,99747.23
2019-03-17T17:45:24.124Z,99751.68
2019-03-17T17:47:52.665Z,99754.30
2019-03-17T17:50:26.281Z,99756.16
2019-03-17T17:52:54.812Z,99758.58
2019-03-17T17:55:23.441Z,99767.37
2019-03-17T17:57:53.020Z,99771.30
2019-03-17T18:00:39.853Z,99772.81
2019-03-17T18:03:08.325Z,99782.17
2019-03-17T18:05:36.809Z,99778.04
2019-03-17T18:08:05.720Z,99779.19
2019-03-17T18:10:34.262Z,99783.16
2019-03-17T18:13:02.738Z,99783.29
2019-03-17T18:15:34.426Z,99777.50
2019-03-17T18:18:02.964Z,99777.58
2019-03-17T18:20:31.869Z,99783.20
2019-03-17T18:23:00.363Z,99785.05
2019-03-17T18:25:29.306Z,99782.12
2019-03-17T18:27:57.794Z,99788.69
2019-03-17T18:30:27.964Z,99803.13
2019-03-17T18:32:56.896Z,99802.50
2019-03-17T18:35:25.489Z,99801.72
2019-03-17T18:37:54.050Z,99800.07
2019-03-17T18:40:23.160Z,99798.89
2019-03-17T18:42:54.105Z,99800.40
2019-03-17T18:45:30.195Z,99809.33
2019-03-17T18:47:58.759Z,99805.98
2019-03-17T18:50:28.937Z,99808.30
2019-03-17T18:52:57.470Z,99814.56
2019-03-17T18:55:25.930Z,99827.01
2019-03-17T18:57:54.466Z,99820.97
2019-03-17T19:00:24.377Z,99822.81
2019-03-17T19:02:52.932Z,99830.88
2019-03-17T19:05:21.585Z,99837.15
2019-03-17T19:07:50.134Z,99826.88
2019-03-17T19:10:21.058Z,99826.30
2019-03-17T19:12:51.148Z,99836.56
2019-03-17T19:15:25.495Z,99839.76
2019-03-17T19:17:54.049Z,99849.05
2019-03-17T19:20:25.372Z,99854.44
2019-03-17T19:22:53.903Z,99859.31
2019-03-17T19:25:23.517Z,99856.63
2019-03-17T19:27:51.988Z,99857.89
2019-03-17T19:30:21.435Z,99858.52
2019-03-17T19:32:49.975Z,99858.02
2019-03-17T19:35:18.664Z,99860.84
2019-03-17T19:37:49.809Z,99858.82
2019-03-17T19:40:23.236Z,99864.63
2019-03-17T19:42:58.747Z,99858.53
2019-03-17T19:45:22.382Z,99858.78
2019-03-17T19:47:50.849Z,99862.36
2019-03-17T19:50:22.960Z,99859.20
2019-03-17T19:52:51.497Z,99857.80
2019-03-17T19:55:20.076Z,99868.69
2019-03-17T19:57:48.787Z,99870.91
2019-03-17T20:00:18.255Z,99867.64
2019-03-17T20:02:49.334Z,99858.75
2019-03-17T20:05:17.974Z,99860.60
2019-03-17T20:07:46.521Z,99867.67
2019-03-17T20:10:21.277Z,99879.77
2019-03-17T20:12:51.647Z,99876.52
2019-03-17T20:15:20.274Z,99872.52
2019-03-17T20:17:50.305Z,99867.98
2019-03-17T20:20:19.011Z,99867.30
2019-03-17T20:22:47.531Z,99872.08
2019-03-17T20:25:16.169Z,99880.14
2019-03-17T20:27:44.745Z,99873.70
2019-03-17T20:30:19.736Z,99872.36
2019-03-17T20:32:48.307Z,99884.73
2019-03-17T20:35:16.944Z,99876.70
2019-03-17T20:37:45.526Z,99877.89
2019-03-17T20:40:15.166Z,99875.85
2019-03-17T20:42:43.764Z,99881.09
2019-03-17T20:45:13.511Z,99889.31
2019-03-17T20:47:42.034Z,99879.91
2019-03-17T20:50:20.130Z,99887.37
2019-03-17T20:52:49.531Z,99878.81
2019-03-17T20:55:18.150Z,99876.22
2019-03-17T20:57:46.754Z,99883.06
2019-03-17T21:00:16.500Z,99886.97
2019-03-17T21:02:45.037Z,99885.36
2019-03-17T21:05:13.891Z,99880.50
2019-03-17T21:07:42.902Z,99883.54
2019-03-17T21:10:15.331Z,99888.17
2019-03-17T21:12:43.850Z,99883.66
2019-03-17T21:15:13.533Z,99881.12
2019-03-17T21:17:42.275Z,99882.47
2019-03-17T21:20:13.080Z,99887.52
2019-03-17T21:22:41.693Z,99887.29
2019-03-17T21:25:10.783Z,99883.61
2019-03-17T21:27:39.326Z,99890.72
2019-03-17T21:30:19.071Z,99884.97
2019-03-17T21:32:47.712Z,99886.31
2019-03-17T21:35:16.371Z,99888.55
2019-03-17T21:37:44.930Z,99896.11
2019-03-17T21:40:13.711Z,99892.92
2019-03-17T21:42:42.169Z,99890.52
2019-03-17T21:45:14.208Z,99896.13
2019-03-17T21:47:42.763Z,99896.25
2019-03-17T21:50:15.806Z,99890.86
2019-03-17T21:52:44.498Z,99891.23
2019-03-17T21:55:14.043Z,99893.05
2019-03-17T21:57:42.642Z,99893.05
2019-03-17T22:00:14.199Z,99904.29
2019-03-17T22:02:42.943Z,99901.61
2019-03-17T22:05:15.817Z,99887.45
2019-03-17T22:07:50.103Z,99893.32
2019-03-17T22:10:16.140Z,99893.32
2019-03-17T22:12:44.753Z,99899.42
2019-03-17T22:15:14.296Z,99896.73
2019-03-17T22:17:42.837Z,99899.55
2019-03-17T22:20:13.106Z,99899.94
2019-03-17T22:22:43.821Z,99901.75
2019-03-17T22:25:13.345Z,99888.30
2019-03-17T22:27:41.961Z,99896.64
2019-03-17T22:30:13.525Z,99901.63
2019-03-17T22:32:42.008Z,99892.75
2019-03-17T22:35:10.967Z,99893.14
2019-03-17T22:37:39.495Z,99892.76
2019-03-17T22:40:12.523Z,99899.47
2019-03-17T22:42:43.363Z,99902.77
2019-03-17T22:45:14.630Z,99907.76
2019-03-17T22:47:46.087Z,99914.75
2019-03-17T22:50:16.670Z,99916.55
2019-03-17T22:52:45.191Z,99914.75
2019-03-17T22:55:14.566Z,99921.96
2019-03-17T22:57:43.388Z,99917.05
2019-03-17T23:00:33.518Z,99919.28
2019-03-17T23:03:02.003Z,99926.11
2019-03-17T23:05:30.520Z,99928.80
2019-03-17T23:07:59.055Z,99918.05
2019-03-17T23:10:29.238Z,99922.92
2019-03-17T23:13:01.907Z,99925.11
2019-03-17T23:15:30.391Z,99920.62
2019-03-17T23:17:59.686Z,99924.61
2019-03-17T23:20:28.406Z,99931.58
2019-03-17T23:22:56.887Z,99922.53
2019-03-17T23:25:26.653Z,99925.94
2019-03-17T23:27:55.079Z,99928.02
2019-03-17T23:30:23.855Z,99916.53
2019-03-17T23:32:52.728Z,99926.55
2019-03-17T23:35:21.399Z,99924.73
2019-03-17T23:37:49.995Z,99925.92
2019-03-17T23:40:18.958Z,99921.27
2019-03-17T23:42:49.089Z,99926.41
2019-03-17T23:45:17.775Z,99941.79
2019-03-17T23:47:46.325Z,99932.73
2019-03-17T23:50:15.269Z,99934.30
2019-03-17T23:52:43.881Z,99943.98
2019-03-17T23:55:14.285Z,99931.28
2019-03-17T23:57:43.124Z,99948.52
